createdAt,value
2018-11-21T00:00:54.217Z,16.37
2018-11-21T00:03:24.572Z,16.40
2018-11-21T00:05:54.891Z,15.73
2018-11-21T00:08:25.287Z,15.87
2018-11-21T00:10:55.668Z,15.83
2018-11-21T00:13:26.045Z,16.23
2018-11-21T00:15:56.387Z,16.47
2018-11-21T00:18:26.762Z,15.60
2018-11-21T00:20:57.081Z,16.13
2018-11-21T00:23:27.472Z,16.77
2018-11-21T00:26:03.983Z,16.83
2018-11-21T00:28:34.374Z,18.00
2018-11-21T00:31:24.110Z,15.77
2018-11-21T00:33:54.455Z,17.27
2018-11-21T00:36:24.840Z,17.93
2018-11-21T00:38:55.227Z,16.10
2018-11-21T00:41:27.687Z,16.93
2018-11-21T00:43:58.068Z,16.90
2018-11-21T00:46:28.436Z,17.73
2018-11-21T00:48:58.827Z,18.03
2018-11-21T00:51:29.192Z,17.80
2018-11-21T00:54:00.613Z,18.03
2018-11-21T00:56:31.742Z,17.87
2018-11-21T00:59:02.064Z,17.23
2018-11-21T01:01:32.444Z,18.70
2018-11-21T01:04:02.826Z,18.30
2018-11-21T01:06:33.153Z,18.23
2018-11-21T01:09:03.509Z,18.43
2018-11-21T01:11:33.849Z,17.20
2018-11-21T01:14:04.239Z,17.63
2018-11-21T01:16:35.319Z,18.13
2018-11-21T01:19:06.676Z,18.93
2018-11-21T01:21:37.030Z,17.07
2018-11-21T01:24:07.390Z,17.00
2018-11-21T01:26:40.608Z,19.97
2018-11-21T01:29:10.973Z,17.60
2018-11-21T01:31:41.346Z,18.53
2018-11-21T01:34:11.732Z,18.97
2018-11-21T01:36:42.096Z,20.23
2018-11-21T01:39:12.473Z,16.83
2018-11-21T01:41:42.847Z,18.13
2018-11-21T01:44:13.924Z,17.37
2018-11-21T01:47:03.644Z,19.10
2018-11-21T01:49:34.011Z,17.63
2018-11-21T01:52:04.393Z,17.00
2018-11-21T01:54:34.741Z,19.90
2018-11-21T01:57:05.813Z,18.33
2018-11-21T01:59:37.211Z,18.17
2018-11-21T02:02:08.837Z,19.30
2018-11-21T02:04:37.966Z,18.40
2018-11-21T02:07:08.333Z,18.93
2018-11-21T02:09:39.694Z,18.20
2018-11-21T02:12:10.060Z,17.63
2018-11-21T02:14:40.481Z,18.20
2018-11-21T02:17:11.562Z,18.20
2018-11-21T02:19:42.691Z,18.37
2018-11-21T02:22:13.006Z,19.73
2018-11-21T02:24:43.421Z,18.47
2018-11-21T02:27:13.792Z,16.73
2018-11-21T02:29:44.173Z,17.43
2018-11-21T02:32:14.597Z,17.57
2018-11-21T02:34:45.171Z,16.77
2018-11-21T02:37:15.531Z,18.70
2018-11-21T02:40:06.088Z,18.00
2018-11-21T02:42:37.231Z,19.07
2018-11-21T02:45:08.358Z,19.07
2018-11-21T02:47:38.691Z,19.10
2018-11-21T02:50:09.835Z,18.70
2018-11-21T02:52:40.965Z,19.50
2018-11-21T02:55:11.362Z,18.00
2018-11-21T02:58:01.059Z,18.73
2018-11-21T03:00:31.450Z,17.43
2018-11-21T03:05:43.474Z,17.27
2018-11-21T03:08:14.869Z,17.90
2018-11-21T03:10:45.254Z,16.47
2018-11-21T03:13:15.591Z,17.73
2018-11-21T03:16:07.372Z,17.33
2018-11-21T03:18:37.780Z,17.30
2018-11-21T03:21:08.095Z,18.13
2018-11-21T03:23:38.407Z,17.53
2018-11-21T03:26:08.816Z,17.37
2018-11-21T03:28:39.180Z,17.83
2018-11-21T03:31:09.540Z,16.97
2018-11-21T03:33:39.926Z,17.63
2018-11-21T03:36:10.284Z,17.67
2018-11-21T03:38:41.433Z,16.63
2018-11-21T03:41:13.604Z,17.93
2018-11-21T03:43:43.963Z,17.47
2018-11-21T03:46:33.466Z,17.07
2018-11-21T03:49:03.823Z,17.37
2018-11-21T03:51:34.940Z,16.97
2018-11-21T03:54:05.335Z,18.30
2018-11-21T03:56:39.785Z,17.13
2018-11-21T03:59:10.185Z,19.30
2018-11-21T04:01:41.598Z,17.20
2018-11-21T04:04:11.949Z,15.87
2018-11-21T04:06:42.348Z,16.77
2018-11-21T04:09:13.423Z,16.93
2018-11-21T04:11:47.891Z,15.57
2018-11-21T04:14:18.293Z,16.50
2018-11-21T04:16:48.661Z,15.03
2018-11-21T04:19:19.042Z,16.90
2018-11-21T04:21:49.445Z,17.33
2018-11-21T04:24:19.826Z,15.83
2018-11-21T04:26:50.198Z,16.53
2018-11-21T04:29:20.601Z,16.40
2018-11-21T04:31:50.990Z,16.33
2018-11-21T04:34:21.360Z,16.03
2018-11-21T04:36:51.757Z,16.27
2018-11-21T04:39:22.117Z,15.93
2018-11-21T04:41:52.479Z,16.40
2018-11-21T04:44:22.819Z,15.97
2018-11-21T04:46:53.191Z,15.63
2018-11-21T04:49:23.563Z,16.83
2018-11-21T04:51:53.919Z,16.97
2018-11-21T04:54:25.005Z,14.90
2018-11-21T04:57:01.533Z,16.17
2018-11-21T04:59:32.678Z,16.80
2018-11-21T05:02:03.036Z,17.40
2018-11-21T05:04:33.433Z,15.83
2018-11-21T05:07:03.764Z,16.80
2018-11-21T05:09:34.872Z,16.67
2018-11-21T05:12:05.271Z,16.77
2018-11-21T05:14:37.650Z,16.90
2018-11-21T05:17:15.365Z,17.73
2018-11-21T05:19:45.745Z,16.83
2018-11-21T05:22:16.063Z,17.57
2018-11-21T05:24:46.466Z,17.43
2018-11-21T05:27:16.775Z,16.30
2018-11-21T05:29:47.152Z,17.33
2018-11-21T05:32:17.553Z,18.67
2018-11-21T05:34:48.698Z,18.07
2018-11-21T05:37:19.834Z,17.47
2018-11-21T05:39:50.218Z,18.03
2018-11-21T05:42:39.958Z,16.80
2018-11-21T05:45:11.129Z,16.40
2018-11-21T05:47:43.551Z,16.43
2018-11-21T05:50:13.862Z,16.00
2018-11-21T05:52:44.206Z,15.80
2018-11-21T05:55:14.561Z,17.00
2018-11-21T05:57:45.691Z,15.63
2018-11-21T06:00:16.788Z,16.70
2018-11-21T06:02:48.121Z,16.13
2018-11-21T06:05:21.555Z,15.83
2018-11-21T06:07:52.969Z,17.70
2018-11-21T06:10:25.376Z,16.80
2018-11-21T06:12:55.736Z,15.53
2018-11-21T06:15:26.119Z,16.23
2018-11-21T06:17:56.469Z,15.60
2018-11-21T06:20:26.845Z,16.00
2018-11-21T06:22:57.246Z,17.23
2018-11-21T06:25:27.560Z,15.97
2018-11-21T06:27:58.635Z,16.33
2018-11-21T06:30:28.970Z,16.00
2018-11-21T06:32:59.349Z,15.50
2018-11-21T06:35:30.423Z,15.07
2018-11-21T06:38:00.806Z,16.10
2018-11-21T06:40:31.116Z,16.63
2018-11-21T06:43:01.494Z,16.93
2018-11-21T06:45:31.898Z,18.00
2018-11-21T06:48:03.045Z,18.17
2018-11-21T06:50:34.254Z,17.93
2018-11-21T06:53:05.347Z,18.20
2018-11-21T06:55:36.474Z,16.43
2018-11-21T06:58:06.859Z,17.20
2018-11-21T07:00:38.233Z,17.43
2018-11-21T07:03:08.607Z,17.27
2018-11-21T07:05:38.978Z,16.87
2018-11-21T07:08:09.365Z,15.37
2018-11-21T07:10:39.685Z,17.23
2018-11-21T07:13:11.219Z,16.03
2018-11-21T07:18:23.679Z,17.47
2018-11-21T07:20:54.160Z,16.73
2018-11-21T07:23:25.238Z,16.47
2018-11-21T07:25:55.611Z,17.17
2018-11-21T07:28:26.002Z,17.03
2018-11-21T07:31:03.525Z,15.53
2018-11-21T07:33:33.923Z,16.90
2018-11-21T07:36:10.364Z,16.60
2018-11-21T07:38:41.784Z,18.37
2018-11-21T07:41:12.155Z,17.53
2018-11-21T07:43:42.527Z,18.10
2018-11-21T07:46:12.877Z,19.00
2018-11-21T07:48:44.012Z,17.70
2018-11-21T07:51:15.098Z,21.17
2018-11-21T07:53:45.504Z,18.93
2018-11-21T07:56:16.691Z,23.67
2018-11-21T07:58:47.005Z,17.93
2018-11-21T08:01:17.348Z,18.77
2018-11-21T08:03:47.708Z,17.87
2018-11-21T08:06:18.124Z,17.73
2018-11-21T08:08:48.509Z,18.47
2018-11-21T08:11:22.959Z,18.40
2018-11-21T08:13:53.325Z,19.07
2018-11-21T08:16:23.668Z,18.27
2018-11-21T08:18:54.035Z,13.63
2018-11-21T08:21:24.403Z,23.50
2018-11-21T08:23:55.808Z,16.63
2018-11-21T08:26:27.983Z,18.20
2018-11-21T08:28:58.350Z,20.45
2018-11-21T08:31:29.945Z,18.83
2018-11-21T08:34:01.331Z,18.13
2018-11-21T08:36:31.650Z,16.57
2018-11-21T08:39:01.995Z,19.80
2018-11-21T08:41:33.130Z,19.30
2018-11-21T08:44:03.489Z,18.80
2018-11-21T08:46:33.823Z,18.23
2018-11-21T08:49:04.176Z,18.83
2018-11-21T08:51:35.560Z,18.93
2018-11-21T08:54:06.697Z,18.53
2018-11-21T08:56:37.019Z,19.73
2018-11-21T08:59:07.381Z,18.67
2018-11-21T09:01:37.763Z,20.73
2018-11-21T09:04:08.128Z,20.23
2018-11-21T09:06:38.486Z,20.23
2018-11-21T09:09:08.832Z,21.50
2018-11-21T09:11:39.192Z,17.90
2018-11-21T09:14:10.261Z,19.97
2018-11-21T09:16:40.657Z,19.50
2018-11-21T09:19:11.737Z,19.43
2018-11-21T09:21:42.085Z,30.23
2018-11-21T09:24:13.519Z,25.43
2018-11-21T09:26:47.946Z,22.50
2018-11-21T09:29:18.294Z,21.10
2018-11-21T09:31:48.633Z,21.67
2018-11-21T09:34:20.038Z,21.07
2018-11-21T09:36:50.351Z,20.27
2018-11-21T09:39:20.691Z,20.40
2018-11-21T09:41:51.058Z,21.17
2018-11-21T09:44:21.426Z,20.83
2018-11-21T09:46:51.810Z,21.60
2018-11-21T09:49:23.196Z,21.30
2018-11-21T09:51:54.568Z,21.50
2018-11-21T09:54:29.060Z,23.00
2018-11-21T09:56:59.390Z,22.50
2018-11-21T09:59:29.766Z,24.27
2018-11-21T10:02:48.189Z,23.50
2018-11-21T10:05:18.551Z,21.47
2018-11-21T10:07:48.919Z,23.27
2018-11-21T10:10:19.335Z,23.57
2018-11-21T10:12:50.457Z,21.87
2018-11-21T10:15:21.824Z,24.03
2018-11-21T10:17:52.158Z,24.10
2018-11-21T10:20:22.519Z,23.63
2018-11-21T10:22:52.837Z,24.37
2018-11-21T10:28:10.963Z,24.87
2018-11-21T10:30:41.301Z,24.43
2018-11-21T10:33:11.664Z,24.23
2018-11-21T10:35:42.028Z,24.13
2018-11-21T10:38:12.432Z,24.13
2018-11-21T10:40:42.745Z,23.77
2018-11-21T10:43:15.105Z,23.90
2018-11-21T10:45:46.479Z,25.97
2018-11-21T10:48:16.802Z,25.47
2018-11-21T10:50:47.156Z,26.50
2018-11-21T10:53:17.481Z,25.93
2018-11-21T10:55:47.808Z,26.30
2018-11-21T10:58:18.168Z,26.37
2018-11-21T11:00:48.575Z,25.70
2018-11-21T11:03:19.659Z,24.30
2018-11-21T11:05:56.174Z,23.17
2018-11-21T11:08:27.306Z,25.90
2018-11-21T11:10:57.688Z,26.57
2018-11-21T11:13:31.455Z,25.10
2018-11-21T11:15:58.434Z,32.83
2018-11-21T11:18:28.833Z,28.03
2018-11-21T11:20:59.096Z,25.37
2018-11-21T11:23:30.488Z,28.17
2018-11-21T11:26:00.905Z,27.80
2018-11-21T11:28:31.967Z,27.57
2018-11-21T11:31:02.292Z,27.60
2018-11-21T11:33:32.654Z,24.83
2018-11-21T11:36:03.034Z,26.30
2018-11-21T11:38:34.361Z,26.17
2018-11-21T11:41:04.754Z,24.63
2018-11-21T11:43:35.275Z,24.77
2018-11-21T11:46:05.593Z,22.20
2018-11-21T11:48:36.714Z,21.60
2018-11-21T11:51:07.105Z,27.25
2018-11-21T11:53:37.462Z,22.63
2018-11-21T11:56:07.848Z,22.07
2018-11-21T11:58:38.336Z,21.77
2018-11-21T12:01:08.637Z,23.33
2018-11-21T12:03:38.957Z,20.03
2018-11-21T12:06:09.392Z,21.43
2018-11-21T12:08:39.737Z,19.80
2018-11-21T12:11:10.860Z,18.40
2018-11-21T12:13:41.381Z,18.43
2018-11-21T12:16:11.745Z,18.33
2018-11-21T12:18:42.878Z,18.13
2018-11-21T12:21:14.039Z,17.77
2018-11-21T12:23:44.351Z,16.43
2018-11-21T12:26:15.444Z,18.27
2018-11-21T12:29:07.213Z,17.97
2018-11-21T12:31:37.568Z,15.43
2018-11-21T12:34:07.895Z,17.57
2018-11-21T12:36:38.278Z,17.13
2018-11-21T12:39:08.640Z,16.17
2018-11-21T12:41:39.002Z,15.40
2018-11-21T12:44:15.460Z,13.13
2018-11-21T12:46:50.887Z,13.80
2018-11-21T12:49:21.276Z,12.17
2018-11-21T12:51:51.655Z,14.47
2018-11-21T12:54:21.967Z,13.23
2018-11-21T12:56:52.391Z,14.23
2018-11-21T12:59:22.714Z,14.30
2018-11-21T13:01:53.067Z,14.27
2018-11-21T13:04:32.251Z,14.93
2018-11-21T13:07:03.406Z,15.43
2018-11-21T13:09:34.490Z,16.70
2018-11-21T13:12:08.907Z,16.53
2018-11-21T13:14:46.585Z,17.17
2018-11-21T13:17:16.942Z,16.27
2018-11-21T13:19:47.305Z,16.10
2018-11-21T13:22:18.385Z,17.83
2018-11-21T13:24:48.767Z,18.03
2018-11-21T13:27:19.125Z,18.10
2018-11-21T13:29:49.488Z,17.10
2018-11-21T13:32:19.890Z,15.37
2018-11-21T13:34:50.200Z,15.60
2018-11-21T13:37:20.554Z,16.73
2018-11-21T13:39:57.062Z,17.50
2018-11-21T13:42:30.453Z,17.23
2018-11-21T13:45:05.088Z,17.40
2018-11-21T13:50:19.358Z,16.47
2018-11-21T13:52:49.741Z,18.90
2018-11-21T13:55:20.091Z,19.33
2018-11-21T13:57:51.471Z,17.70
2018-11-21T14:00:22.653Z,18.37
2018-11-21T14:02:53.942Z,17.93
2018-11-21T14:05:27.037Z,19.37
2018-11-21T14:08:00.044Z,20.10
2018-11-21T14:10:30.416Z,18.97
2018-11-21T14:13:00.805Z,18.40
2018-11-21T14:15:33.718Z,17.73
2018-11-21T14:18:04.078Z,17.53
2018-11-21T14:20:38.106Z,19.07
2018-11-21T14:23:11.134Z,18.13
2018-11-21T14:25:41.495Z,17.33
2018-11-21T14:28:11.860Z,20.73
2018-11-21T14:30:42.988Z,18.80
2018-11-21T14:33:16.026Z,20.37
2018-11-21T14:35:52.290Z,19.77
2018-11-21T14:38:20.229Z,22.83
2018-11-21T14:41:02.952Z,20.17
2018-11-21T14:43:33.273Z,18.97
2018-11-21T14:46:06.311Z,17.07
2018-11-21T14:48:39.426Z,16.50
2018-11-21T14:51:09.787Z,19.80
2018-11-21T14:53:40.100Z,19.00
2018-11-21T14:56:13.650Z,20.30
2018-11-21T14:58:44.007Z,19.07
2018-11-21T15:01:14.381Z,19.77
2018-11-21T15:03:50.917Z,18.33
2018-11-21T15:06:29.980Z,16.73
2018-11-21T15:09:03.414Z,17.27
2018-11-21T15:11:39.538Z,17.30
2018-11-21T15:14:12.789Z,18.47
2018-11-21T15:16:43.154Z,17.87
2018-11-21T15:21:56.724Z,18.23
2018-11-21T15:24:31.181Z,17.07
2018-11-21T15:27:04.541Z,17.07
2018-11-21T15:29:51.441Z,19.13
2018-11-21T15:32:26.911Z,16.40
2018-11-21T15:34:59.309Z,18.93
2018-11-21T15:37:32.368Z,15.07
2018-11-21T15:40:08.851Z,19.20
2018-11-21T15:42:41.693Z,17.40
2018-11-21T15:45:12.047Z,16.80
2018-11-21T15:47:46.505Z,16.47
2018-11-21T15:50:16.838Z,13.90
2018-11-21T15:52:52.712Z,15.60
2018-11-21T15:55:17.514Z,14.27
2018-11-21T15:57:47.905Z,14.87
2018-11-21T16:00:20.705Z,18.70
2018-11-21T16:02:54.524Z,19.07
2018-11-21T16:05:25.655Z,17.47
2018-11-21T16:07:56.018Z,21.87
2018-11-21T16:10:26.424Z,20.40
2018-11-21T16:12:56.785Z,18.23
2018-11-21T16:15:36.090Z,17.43
2018-11-21T16:18:09.135Z,15.80
2018-11-21T16:20:39.503Z,14.30
2018-11-21T16:23:09.893Z,14.47
2018-11-21T16:25:41.483Z,15.10
2018-11-21T16:28:10.607Z,16.60
2018-11-21T16:30:40.955Z,14.10
2018-11-21T16:33:14.397Z,17.13
2018-11-21T16:35:48.658Z,16.23
2018-11-21T16:38:21.046Z,16.47
2018-11-21T16:40:51.366Z,15.27
2018-11-21T16:43:33.964Z,16.57
2018-11-21T16:46:17.146Z,16.40
2018-11-21T16:48:50.358Z,15.27
2018-11-21T16:51:20.720Z,15.60
2018-11-21T16:53:53.871Z,15.67
2018-11-21T16:56:24.268Z,15.90
2018-11-21T16:58:54.642Z,14.97
2018-11-21T17:01:32.812Z,16.40
2018-11-21T17:04:03.937Z,16.33
2018-11-21T17:06:34.288Z,16.23
2018-11-21T17:09:05.399Z,15.30
2018-11-21T17:11:38.187Z,15.47
2018-11-21T17:14:08.549Z,15.27
2018-11-21T17:16:41.779Z,16.30
2018-11-21T17:19:14.182Z,18.20
2018-11-21T17:21:44.565Z,17.73
2018-11-21T17:24:14.947Z,16.67
2018-11-21T17:26:45.298Z,16.63
2018-11-21T17:29:15.698Z,16.57
2018-11-21T17:31:46.088Z,16.13
2018-11-21T17:34:21.717Z,15.67
2018-11-21T17:36:52.157Z,16.50
2018-11-21T17:39:26.414Z,16.33
2018-11-21T17:41:56.768Z,15.80
2018-11-21T17:44:27.992Z,15.67
2018-11-21T17:46:58.284Z,15.80
2018-11-21T17:49:29.664Z,17.47
2018-11-21T17:52:00.038Z,16.83
2018-11-21T17:54:30.407Z,17.30
2018-11-21T17:57:00.729Z,17.30
2018-11-21T18:02:18.743Z,17.33
2018-11-21T18:04:49.899Z,17.50
2018-11-21T18:07:21.215Z,16.73
2018-11-21T18:09:57.848Z,16.70
2018-11-21T18:12:30.785Z,16.27
2018-11-21T18:15:03.767Z,17.17
2018-11-21T18:17:34.118Z,16.73
2018-11-21T18:20:04.480Z,16.20
2018-11-21T18:22:34.818Z,16.43
2018-11-21T18:25:05.192Z,15.87
2018-11-21T18:27:35.563Z,16.17
2018-11-21T18:30:05.936Z,16.47
2018-11-21T18:32:38.732Z,16.83
2018-11-21T18:35:11.843Z,15.20
2018-11-21T18:37:44.245Z,16.00
2018-11-21T18:40:17.456Z,16.13
2018-11-21T18:42:48.595Z,16.43
2018-11-21T18:45:18.895Z,16.63
2018-11-21T18:47:54.544Z,16.20
2018-11-21T18:50:31.359Z,15.97
2018-11-21T18:53:04.281Z,17.53
2018-11-21T18:55:36.695Z,16.40
2018-11-21T18:58:07.073Z,18.10
2018-11-21T19:00:43.593Z,16.83
2018-11-21T19:03:38.085Z,16.87
2018-11-21T19:06:13.915Z,17.37
2018-11-21T19:08:44.232Z,20.03
2018-11-21T19:11:22.591Z,18.13
2018-11-21T19:13:53.729Z,18.17
2018-11-21T19:16:24.859Z,17.80
2018-11-21T19:18:55.239Z,18.50
2018-11-21T19:21:26.586Z,17.03
2018-11-21T19:23:59.487Z,17.10
2018-11-21T19:26:51.532Z,16.13
2018-11-21T19:29:24.781Z,16.53
2018-11-21T19:31:55.139Z,16.10
2018-11-21T19:34:31.666Z,16.37
2018-11-21T19:37:02.803Z,16.40
2018-11-21T19:39:33.958Z,16.40
2018-11-21T19:42:04.349Z,15.97
2018-11-21T19:44:34.717Z,17.43
2018-11-21T19:47:05.068Z,17.13
2018-11-21T19:49:37.458Z,16.93
2018-11-21T19:52:07.823Z,16.90
2018-11-21T19:54:38.196Z,16.03
2018-11-21T19:57:11.207Z,17.53
2018-11-21T19:59:43.604Z,17.10
2018-11-21T20:02:11.903Z,17.30
2018-11-21T20:04:42.288Z,15.90
2018-11-21T20:07:12.655Z,19.37
2018-11-21T20:09:45.839Z,19.10
2018-11-21T20:12:22.549Z,18.23
2018-11-21T20:14:53.933Z,18.27
2018-11-21T20:17:24.293Z,19.00
2018-11-21T20:19:55.462Z,17.87
2018-11-21T20:25:19.287Z,16.67
2018-11-21T20:27:49.667Z,17.27
2018-11-21T20:30:20.030Z,16.40
2018-11-21T20:32:55.484Z,17.37
2018-11-21T20:35:28.276Z,17.33
2018-11-21T20:37:58.643Z,18.40
2018-11-21T20:40:29.034Z,19.13
2018-11-21T20:42:59.344Z,18.97
2018-11-21T20:45:29.705Z,17.80
2018-11-21T20:48:00.866Z,18.27
2018-11-21T20:50:31.242Z,19.73
2018-11-21T20:53:01.556Z,18.30
2018-11-21T20:55:51.266Z,17.80
2018-11-21T20:58:21.648Z,21.42
2018-11-21T21:00:58.036Z,17.00
2018-11-21T21:03:28.397Z,17.83
2018-11-21T21:05:59.548Z,17.17
2018-11-21T21:08:30.654Z,17.57
2018-11-21T21:11:03.806Z,18.83
2018-11-21T21:13:36.749Z,19.17
2018-11-21T21:16:07.110Z,23.57
2018-11-21T21:18:37.476Z,18.17
2018-11-21T21:21:09.762Z,19.47
2018-11-21T21:26:27.060Z,19.17
2018-11-21T21:29:03.621Z,16.70
2018-11-21T21:31:36.958Z,18.97
2018-11-21T21:34:10.007Z,19.73
2018-11-21T21:36:40.366Z,15.43
2018-11-21T21:39:30.083Z,19.80
2018-11-21T21:42:05.809Z,19.37
2018-11-21T21:44:36.149Z,17.60
2018-11-21T21:47:06.468Z,20.17
2018-11-21T21:49:36.795Z,19.50
2018-11-21T21:52:09.870Z,20.80
2018-11-21T21:54:46.120Z,19.53
2018-11-21T21:57:19.557Z,18.97
2018-11-21T21:59:52.335Z,20.43
2018-11-21T22:02:22.648Z,18.43
2018-11-21T22:04:53.046Z,19.03
2018-11-21T22:07:26.435Z,20.30
2018-11-21T22:09:59.542Z,20.20
2018-11-21T22:12:52.704Z,16.90
2018-11-21T22:15:25.436Z,17.57
2018-11-21T22:17:56.585Z,18.87
2018-11-21T22:20:26.957Z,18.87
2018-11-21T22:22:57.371Z,17.13
2018-11-21T22:25:28.705Z,18.33
2018-11-21T22:27:59.086Z,17.80
2018-11-21T22:30:29.423Z,19.30
2018-11-21T22:32:59.737Z,18.63
2018-11-21T22:35:30.082Z,16.33
2018-11-21T22:38:00.486Z,20.10
2018-11-21T22:40:30.856Z,18.83
2018-11-21T22:43:03.627Z,20.20
2018-11-21T22:45:34.007Z,19.30
2018-11-21T22:48:04.328Z,20.70
2018-11-21T22:50:35.412Z,21.63
2018-11-21T22:53:05.825Z,18.23
2018-11-21T22:55:36.194Z,19.23
2018-11-21T22:58:06.557Z,18.20
2018-11-21T23:00:36.913Z,18.90
2018-11-21T23:03:07.270Z,17.70
2018-11-21T23:05:37.807Z,18.30
2018-11-21T23:08:07.985Z,17.33
2018-11-21T23:10:41.198Z,17.87
2018-11-21T23:13:12.351Z,15.70
2018-11-21T23:15:42.754Z,17.87
2018-11-21T23:18:13.887Z,19.10
2018-11-21T23:20:44.263Z,16.63
2018-11-21T23:23:14.654Z,16.63
2018-11-21T23:25:44.965Z,19.33
2018-11-21T23:28:15.329Z,19.67
2018-11-21T23:30:45.723Z,18.73
2018-11-21T23:33:16.104Z,19.20
2018-11-21T23:35:46.487Z,20.20
2018-11-21T23:38:17.598Z,17.93
2018-11-21T23:40:47.922Z,15.77
2018-11-21T23:43:18.290Z,15.60
2018-11-21T23:45:49.397Z,17.73
2018-11-21T23:48:19.767Z,21.73
2018-11-21T23:50:50.136Z,22.23
2018-11-21T23:53:20.492Z,21.93
2018-11-21T23:55:50.851Z,21.83
2018-11-21T23:58:21.166Z,25.40
